createdAt,value
2019-03-23T00:00:42.848Z,6.20
2019-03-23T00:03:13.889Z,7.07
2019-03-23T00:05:53.714Z,7.93
2019-03-23T00:08:24.832Z,6.47
2019-03-23T00:10:55.768Z,7.20
2019-03-23T00:13:26.788Z,7.67
2019-03-23T00:16:03.930Z,8.13
2019-03-23T00:18:34.877Z,6.53
2019-03-23T00:21:05.883Z,6.60
2019-03-23T00:23:37.118Z,6.63
2019-03-23T00:26:16.202Z,6.73
2019-03-23T00:28:47.398Z,7.00
2019-03-23T00:31:18.576Z,6.77
2019-03-23T00:33:49.673Z,6.67
2019-03-23T00:36:20.471Z,7.33
2019-03-23T00:38:51.448Z,6.57
2019-03-23T00:41:22.333Z,6.63
2019-03-23T00:43:53.402Z,7.80
2019-03-23T00:46:24.483Z,7.13
2019-03-23T00:48:55.438Z,7.10
2019-03-23T00:51:26.395Z,6.73
2019-03-23T00:53:57.383Z,7.33
2019-03-23T00:56:28.276Z,6.80
2019-03-23T00:58:59.304Z,7.77
2019-03-23T01:01:30.369Z,7.73
2019-03-23T01:04:01.424Z,7.33
2019-03-23T01:06:32.428Z,7.50
2019-03-23T01:09:04.932Z,7.40
2019-03-23T01:11:35.842Z,8.20
2019-03-23T01:14:06.708Z,6.43
2019-03-23T01:16:37.673Z,7.50
2019-03-23T01:19:08.690Z,7.60
2019-03-23T01:21:39.682Z,7.00
2019-03-23T01:24:10.806Z,6.97
2019-03-23T01:26:41.755Z,7.50
2019-03-23T01:29:12.730Z,7.80
2019-03-23T01:31:43.744Z,7.53
2019-03-23T01:34:14.772Z,7.50
2019-03-23T01:36:45.719Z,6.83
2019-03-23T01:39:16.650Z,6.90
2019-03-23T01:41:47.530Z,7.20
2019-03-23T01:44:18.741Z,8.17
2019-03-23T01:46:49.691Z,7.67
2019-03-23T01:49:20.642Z,6.43
2019-03-23T01:51:51.945Z,7.90
2019-03-23T01:54:22.926Z,7.67
2019-03-23T01:56:53.974Z,8.37
2019-03-23T01:59:24.949Z,8.00
2019-03-23T02:01:56.013Z,8.10
2019-03-23T02:04:27.077Z,7.77
2019-03-23T02:06:58.028Z,7.57
2019-03-23T02:09:29.033Z,7.20
2019-03-23T02:11:59.999Z,8.07
2019-03-23T02:14:31.036Z,8.20
2019-03-23T02:17:01.952Z,7.97
2019-03-23T02:19:32.999Z,7.70
2019-03-23T02:22:03.961Z,8.20
2019-03-23T02:24:35.477Z,7.77
2019-03-23T02:27:07.072Z,8.70
2019-03-23T02:29:38.051Z,7.40
2019-03-23T02:32:08.987Z,9.20
2019-03-23T02:34:39.923Z,7.63
2019-03-23T02:37:10.853Z,8.13
2019-03-23T02:39:41.794Z,7.97
2019-03-23T02:42:12.889Z,7.83
2019-03-23T02:44:43.942Z,8.73
2019-03-23T02:47:15.044Z,8.43
2019-03-23T02:49:46.147Z,8.53
2019-03-23T02:52:17.127Z,8.07
2019-03-23T02:54:48.172Z,8.10
2019-03-23T02:57:19.235Z,8.10
2019-03-23T02:59:50.298Z,7.87
2019-03-23T03:02:21.342Z,7.43
2019-03-23T03:04:52.159Z,8.30
2019-03-23T03:07:26.806Z,7.43
2019-03-23T03:09:57.734Z,8.03
2019-03-23T03:12:28.640Z,8.23
2019-03-23T03:14:59.540Z,8.37
2019-03-23T03:17:30.426Z,8.80
2019-03-23T03:20:01.436Z,9.00
2019-03-23T03:22:32.395Z,7.97
2019-03-23T03:25:03.490Z,7.73
2019-03-23T03:27:34.560Z,8.30
2019-03-23T03:30:07.014Z,8.80
2019-03-23T03:32:37.937Z,9.60
2019-03-23T03:35:09.529Z,9.03
2019-03-23T03:37:40.520Z,9.40
2019-03-23T03:40:11.844Z,7.47
2019-03-23T03:42:42.834Z,8.77
2019-03-23T03:45:25.258Z,8.30
2019-03-23T03:47:56.543Z,9.07
2019-03-23T03:50:27.411Z,9.00
2019-03-23T03:52:58.287Z,8.17
2019-03-23T03:55:29.354Z,9.33
2019-03-23T03:58:00.235Z,9.10
2019-03-23T04:00:31.174Z,9.33
2019-03-23T04:03:02.415Z,9.67
2019-03-23T04:05:33.383Z,9.00
2019-03-23T04:08:11.379Z,9.20
2019-03-23T04:10:37.270Z,8.83
2019-03-23T04:13:08.173Z,9.73
2019-03-23T04:15:39.264Z,9.27
2019-03-23T04:18:10.330Z,9.50
2019-03-23T04:20:41.304Z,9.57
2019-03-23T04:23:12.295Z,9.67
2019-03-23T04:25:43.162Z,10.70
2019-03-23T04:28:14.158Z,10.13
2019-03-23T04:30:45.024Z,10.27
2019-03-23T04:33:15.974Z,10.50
2019-03-23T04:35:46.999Z,10.23
2019-03-23T04:38:22.456Z,10.00
2019-03-23T04:40:50.665Z,10.30
2019-03-23T04:43:21.803Z,10.77
2019-03-23T04:45:53.058Z,10.17
2019-03-23T04:48:23.991Z,10.30
2019-03-23T04:50:54.913Z,9.97
2019-03-23T04:53:25.962Z,9.57
2019-03-23T04:55:57.000Z,11.17
2019-03-23T04:58:28.047Z,9.70
2019-03-23T05:00:59.248Z,9.93
2019-03-23T05:03:30.200Z,11.23
2019-03-23T05:06:01.177Z,9.90
2019-03-23T05:08:33.673Z,11.73
2019-03-23T05:11:04.992Z,9.93
2019-03-23T05:13:35.914Z,10.40
2019-03-23T05:16:06.970Z,10.90
2019-03-23T05:18:38.432Z,9.73
2019-03-23T05:21:09.466Z,10.23
2019-03-23T05:23:40.551Z,10.43
2019-03-23T05:26:11.455Z,10.00
2019-03-23T05:28:42.516Z,9.83
2019-03-23T05:31:13.402Z,9.93
2019-03-23T05:33:44.356Z,9.83
2019-03-23T05:36:15.480Z,10.23
2019-03-23T05:38:46.628Z,10.07
2019-03-23T05:41:17.640Z,9.80
2019-03-23T05:43:48.526Z,9.97
2019-03-23T05:46:19.525Z,9.17
2019-03-23T05:48:50.470Z,9.47
2019-03-23T05:51:21.592Z,9.00
2019-03-23T05:53:52.564Z,9.37
2019-03-23T05:56:23.526Z,9.10
2019-03-23T05:58:56.585Z,10.10
2019-03-23T06:01:27.474Z,9.33
2019-03-23T06:03:58.872Z,9.30
2019-03-23T06:06:30.048Z,9.07
2019-03-23T06:09:01.023Z,9.23
2019-03-23T06:11:31.922Z,9.03
2019-03-23T06:14:03.007Z,8.93
2019-03-23T06:16:34.005Z,9.90
2019-03-23T06:19:05.023Z,9.80
2019-03-23T06:21:35.929Z,9.03
2019-03-23T06:24:07.012Z,9.23
2019-03-23T06:26:38.083Z,9.50
2019-03-23T06:29:09.124Z,9.83
2019-03-23T06:31:40.154Z,9.33
2019-03-23T06:34:11.084Z,10.13
2019-03-23T06:36:41.964Z,9.33
2019-03-23T06:39:13.059Z,9.70
2019-03-23T06:41:43.907Z,9.17
2019-03-23T06:44:14.873Z,10.33
2019-03-23T06:46:45.836Z,10.67
2019-03-23T06:49:21.801Z,9.83
2019-03-23T06:52:16.282Z,10.10
2019-03-23T06:54:53.258Z,10.33
2019-03-23T06:57:26.065Z,10.70
2019-03-23T06:59:56.979Z,11.43
2019-03-23T07:02:28.163Z,11.00
2019-03-23T07:04:59.153Z,10.57
2019-03-23T07:07:30.401Z,10.70
2019-03-23T07:10:01.274Z,10.77
2019-03-23T07:12:32.282Z,10.33
2019-03-23T07:15:04.615Z,10.33
2019-03-23T07:17:36.312Z,10.63
2019-03-23T07:20:12.494Z,11.40
2019-03-23T07:22:43.814Z,11.20
2019-03-23T07:25:16.495Z,11.27
2019-03-23T07:27:47.410Z,11.90
2019-03-23T07:30:18.879Z,11.80
2019-03-23T07:32:50.382Z,13.87
2019-03-23T07:35:21.943Z,11.23
2019-03-23T07:37:53.381Z,11.87
2019-03-23T07:40:24.598Z,11.40
2019-03-23T07:42:56.043Z,11.37
2019-03-23T07:45:27.153Z,11.73
2019-03-23T07:47:58.099Z,11.07
2019-03-23T07:50:29.937Z,11.80
2019-03-23T07:53:00.859Z,12.00
2019-03-23T07:55:32.059Z,13.33
2019-03-23T07:58:02.992Z,13.20
2019-03-23T08:00:33.971Z,13.20
2019-03-23T08:03:04.934Z,11.77
2019-03-23T08:05:36.025Z,12.43
2019-03-23T08:08:07.176Z,11.63
2019-03-23T08:10:38.298Z,12.80
2019-03-23T08:13:09.537Z,13.10
2019-03-23T08:15:40.633Z,13.20
2019-03-23T08:18:13.297Z,12.47
2019-03-23T08:20:45.024Z,13.57
2019-03-23T08:23:16.191Z,13.33
2019-03-23T08:25:47.264Z,14.60
2019-03-23T08:28:19.642Z,15.23
2019-03-23T08:30:50.858Z,15.10
2019-03-23T08:33:22.645Z,15.37
2019-03-23T08:35:55.298Z,15.30
2019-03-23T08:38:27.899Z,16.00
2019-03-23T08:40:59.010Z,16.27
2019-03-23T08:43:30.111Z,15.17
2019-03-23T08:46:01.074Z,15.83
2019-03-23T08:48:32.004Z,16.03
2019-03-23T08:51:03.064Z,15.33
2019-03-23T08:53:35.480Z,15.60
2019-03-23T08:56:06.429Z,16.93
2019-03-23T08:58:36.226Z,16.00
2019-03-23T09:01:07.276Z,16.13
2019-03-23T09:03:38.374Z,15.23
2019-03-23T09:06:09.359Z,16.20
2019-03-23T09:08:40.427Z,15.70
2019-03-23T09:11:20.221Z,16.63
2019-03-23T09:13:44.172Z,15.33
2019-03-23T09:16:15.159Z,121.10
2019-03-23T09:18:46.066Z,17.53
2019-03-23T09:21:17.085Z,17.47
2019-03-23T09:23:48.132Z,17.17
2019-03-23T09:26:19.226Z,17.03
2019-03-23T09:28:50.212Z,17.90
2019-03-23T09:31:21.232Z,17.77
2019-03-23T09:33:52.476Z,17.50
2019-03-23T09:36:23.480Z,18.13
2019-03-23T09:38:54.440Z,18.63
2019-03-23T09:41:25.526Z,37.00
2019-03-23T09:43:56.830Z,19.27
2019-03-23T09:46:27.808Z,18.13
2019-03-23T09:48:58.751Z,19.40
2019-03-23T09:51:29.799Z,19.60
2019-03-23T09:54:00.835Z,20.30
2019-03-23T09:56:31.989Z,20.70
2019-03-23T09:59:03.031Z,19.70
2019-03-23T10:01:34.362Z,19.33
2019-03-23T10:04:05.447Z,19.93
2019-03-23T10:06:36.474Z,20.50
2019-03-23T10:09:07.463Z,20.83
2019-03-23T10:11:38.683Z,19.73
2019-03-23T10:14:09.661Z,19.87
2019-03-23T10:16:40.916Z,20.30
2019-03-23T10:19:12.108Z,21.03
2019-03-23T10:21:43.257Z,21.63
2019-03-23T10:24:14.236Z,20.10
2019-03-23T10:26:45.377Z,20.90
2019-03-23T10:29:16.392Z,24.20
2019-03-23T10:31:47.423Z,24.47
2019-03-23T10:34:18.415Z,26.60
2019-03-23T10:36:49.401Z,21.87
2019-03-23T10:39:20.408Z,24.80
2019-03-23T10:41:51.800Z,22.17
2019-03-23T10:44:22.816Z,25.40
2019-03-23T10:46:53.723Z,22.60
2019-03-23T10:49:24.636Z,23.00
2019-03-23T10:51:55.616Z,25.63
2019-03-23T10:54:26.688Z,23.23
2019-03-23T10:56:57.786Z,23.60
2019-03-23T10:59:28.756Z,22.37
2019-03-23T11:01:59.899Z,23.97
2019-03-23T11:04:30.927Z,22.47
2019-03-23T11:07:01.872Z,26.67
2019-03-23T11:09:33.056Z,23.50
2019-03-23T11:12:04.174Z,25.00
2019-03-23T11:14:35.148Z,27.27
2019-03-23T11:17:06.249Z,25.97
2019-03-23T11:19:37.292Z,24.87
2019-03-23T11:22:10.055Z,24.92
2019-03-23T11:24:41.303Z,25.30
2019-03-23T11:27:12.399Z,25.97
2019-03-23T11:29:43.566Z,24.10
2019-03-23T11:32:14.542Z,26.53
2019-03-23T11:34:45.735Z,25.77
2019-03-23T11:37:17.129Z,26.70
2019-03-23T11:39:48.138Z,25.75
2019-03-23T11:42:19.265Z,25.10
2019-03-23T11:44:50.551Z,26.95
2019-03-23T11:47:21.580Z,25.27
2019-03-23T11:49:52.608Z,26.20
2019-03-23T11:52:23.695Z,26.75
2019-03-23T11:54:54.799Z,26.73
2019-03-23T11:57:26.045Z,24.85
2019-03-23T11:59:57.277Z,25.43
2019-03-23T12:02:31.722Z,24.95
2019-03-23T12:05:03.238Z,26.75
2019-03-23T12:07:37.179Z,24.43
2019-03-23T12:10:10.841Z,24.70
2019-03-23T12:12:41.936Z,24.95
2019-03-23T12:15:14.288Z,24.92
2019-03-23T12:17:45.375Z,24.63
2019-03-23T12:20:16.538Z,24.82
2019-03-23T12:22:47.739Z,26.10
2019-03-23T12:25:18.806Z,24.90
2019-03-23T12:27:49.851Z,25.57
2019-03-23T12:30:21.103Z,22.82
2019-03-23T12:32:52.444Z,23.20
2019-03-23T12:35:23.662Z,23.40
2019-03-23T12:37:56.007Z,24.40
2019-03-23T12:40:30.042Z,24.20
2019-03-23T12:43:01.160Z,24.13
2019-03-23T12:45:32.301Z,24.95
2019-03-23T12:48:03.288Z,23.50
2019-03-23T12:50:34.407Z,22.17
2019-03-23T12:53:05.674Z,23.02
2019-03-23T12:55:36.821Z,22.87
2019-03-23T12:58:09.532Z,23.30
2019-03-23T13:00:40.637Z,23.83
2019-03-23T13:03:11.637Z,21.45
2019-03-23T13:05:42.863Z,21.33
2019-03-23T13:08:13.940Z,20.85
2019-03-23T13:10:45.285Z,23.95
2019-03-23T13:13:16.504Z,23.80
2019-03-23T13:15:49.219Z,23.65
2019-03-23T13:18:27.178Z,24.70
2019-03-23T13:20:54.790Z,25.32
2019-03-23T13:23:25.935Z,25.00
2019-03-23T13:25:56.976Z,25.88
2019-03-23T13:28:28.124Z,25.17
2019-03-23T13:30:59.200Z,23.85
2019-03-23T13:33:30.409Z,23.98
2019-03-23T13:36:01.582Z,24.45
2019-03-23T13:38:32.541Z,23.75
2019-03-23T13:41:09.860Z,23.85
2019-03-23T13:43:41.029Z,24.75
2019-03-23T13:46:12.244Z,25.45
2019-03-23T13:48:43.366Z,25.02
2019-03-23T13:51:15.727Z,25.70
2019-03-23T13:53:46.906Z,25.72
2019-03-23T13:56:17.956Z,24.23
2019-03-23T13:58:49.216Z,23.95
2019-03-23T14:01:20.352Z,23.55
2019-03-23T14:03:51.512Z,23.45
2019-03-23T14:06:22.590Z,24.32
2019-03-23T14:08:53.790Z,24.32
2019-03-23T14:11:24.782Z,24.30
2019-03-23T14:13:55.812Z,21.50
2019-03-23T14:16:26.868Z,23.62
2019-03-23T14:18:57.846Z,22.20
2019-03-23T14:21:28.902Z,23.32
2019-03-23T14:23:59.952Z,23.18
2019-03-23T14:26:31.198Z,22.32
2019-03-23T14:29:02.173Z,22.17
2019-03-23T14:31:33.249Z,23.00
2019-03-23T14:34:04.362Z,22.82
2019-03-23T14:36:35.504Z,23.50
2019-03-23T14:39:07.303Z,23.20
2019-03-23T14:41:38.501Z,23.67
2019-03-23T14:44:09.525Z,23.07
2019-03-23T14:46:40.590Z,23.90
2019-03-23T14:49:11.762Z,22.80
2019-03-23T14:51:42.667Z,22.97
2019-03-23T14:54:14.026Z,22.40
2019-03-23T14:56:45.146Z,22.73
2019-03-23T14:59:16.250Z,22.75
2019-03-23T15:01:47.394Z,23.18
2019-03-23T15:04:42.883Z,23.00
2019-03-23T15:07:20.812Z,24.10
2019-03-23T15:09:51.919Z,24.32
2019-03-23T15:12:22.931Z,23.73
2019-03-23T15:14:54.272Z,23.12
2019-03-23T15:17:25.333Z,23.12
2019-03-23T15:19:56.382Z,23.85
2019-03-23T15:22:27.414Z,25.15
2019-03-23T15:24:58.495Z,24.75
2019-03-23T15:27:29.632Z,25.70
2019-03-23T15:30:01.197Z,22.15
2019-03-23T15:32:32.469Z,22.75
2019-03-23T15:35:04.625Z,23.47
2019-03-23T15:37:35.651Z,22.60
2019-03-23T15:40:07.721Z,21.47
2019-03-23T15:42:40.364Z,22.33
2019-03-23T15:45:12.316Z,19.93
2019-03-23T15:47:43.652Z,21.57
2019-03-23T15:50:15.027Z,20.43
2019-03-23T15:52:46.118Z,22.23
2019-03-23T15:55:17.581Z,21.70
2019-03-23T15:58:04.991Z,22.10
2019-03-23T16:00:36.330Z,21.80
2019-03-23T16:03:07.589Z,21.23
2019-03-23T16:05:38.861Z,20.73
2019-03-23T16:08:09.814Z,21.17
2019-03-23T16:10:40.718Z,21.67
2019-03-23T16:13:11.685Z,20.77
2019-03-23T16:15:43.008Z,20.53
2019-03-23T16:18:13.965Z,21.33
2019-03-23T16:20:45.049Z,21.37
2019-03-23T16:23:16.134Z,21.63
2019-03-23T16:25:47.169Z,21.33
2019-03-23T16:28:18.342Z,20.90
2019-03-23T16:30:49.380Z,22.30
2019-03-23T16:33:20.579Z,21.50
2019-03-23T16:35:51.562Z,21.80
2019-03-23T16:38:25.654Z,21.97
2019-03-23T16:40:56.695Z,20.57
2019-03-23T16:43:28.031Z,20.20
2019-03-23T16:45:59.237Z,20.83
2019-03-23T16:48:30.891Z,24.37
2019-03-23T16:51:02.000Z,21.17
2019-03-23T16:53:33.261Z,21.00
2019-03-23T16:56:04.555Z,19.40
2019-03-23T16:58:35.911Z,20.77
2019-03-23T17:01:07.207Z,19.77
2019-03-23T17:03:38.295Z,20.33
2019-03-23T17:06:13.414Z,20.37
2019-03-23T17:08:44.737Z,19.40
2019-03-23T17:11:15.833Z,20.10
2019-03-23T17:13:46.860Z,19.33
2019-03-23T17:16:18.155Z,21.13
2019-03-23T17:18:49.224Z,20.40
2019-03-23T17:21:20.239Z,19.80
2019-03-23T17:23:51.315Z,25.43
2019-03-23T17:26:22.450Z,27.63
2019-03-23T17:28:53.428Z,22.00
2019-03-23T17:31:25.025Z,20.53
2019-03-23T17:33:56.407Z,23.60
2019-03-23T17:36:27.402Z,21.17
2019-03-23T17:38:58.520Z,20.83
2019-03-23T17:41:29.534Z,21.70
2019-03-23T17:44:00.537Z,21.40
2019-03-23T17:46:31.843Z,21.27
2019-03-23T17:49:02.935Z,22.40
2019-03-23T17:51:33.871Z,23.60
2019-03-23T17:54:05.260Z,24.73
2019-03-23T17:56:47.328Z,22.60
2019-03-23T17:59:18.824Z,22.63
2019-03-23T18:01:49.976Z,21.70
2019-03-23T18:04:21.039Z,21.03
2019-03-23T18:06:52.288Z,21.70
2019-03-23T18:09:23.332Z,20.77
2019-03-23T18:11:54.282Z,20.83
2019-03-23T18:14:25.371Z,20.73
2019-03-23T18:16:56.476Z,21.23
2019-03-23T18:19:27.726Z,20.77
2019-03-23T18:21:58.845Z,21.23
2019-03-23T18:24:31.687Z,20.93
2019-03-23T18:30:45.831Z,20.53
2019-03-23T18:33:33.774Z,21.70
2019-03-23T18:36:14.754Z,21.57
2019-03-23T18:38:53.758Z,22.27
2019-03-23T18:41:37.168Z,21.00
2019-03-23T18:44:16.240Z,21.53
2019-03-23T18:46:43.919Z,21.63
2019-03-23T18:49:15.133Z,19.83
2019-03-23T18:51:46.163Z,22.13
2019-03-23T18:54:17.242Z,22.80
2019-03-23T18:56:48.138Z,21.00
2019-03-23T18:59:19.140Z,22.07
2019-03-23T19:01:50.090Z,21.67
2019-03-23T19:04:23.205Z,22.03
2019-03-23T19:06:54.369Z,23.53
2019-03-23T19:09:25.725Z,22.63
2019-03-23T19:11:57.621Z,23.23
2019-03-23T19:14:32.110Z,21.97
2019-03-23T19:17:03.149Z,22.47
2019-03-23T19:19:34.400Z,22.60
2019-03-23T19:22:07.691Z,23.70
2019-03-23T19:24:38.755Z,23.03
2019-03-23T19:27:09.736Z,23.87
2019-03-23T19:29:40.748Z,28.73
2019-03-23T19:32:13.077Z,28.47
2019-03-23T19:34:43.944Z,29.63
2019-03-23T19:37:15.044Z,27.50
2019-03-23T19:39:47.080Z,28.20
2019-03-23T19:42:18.021Z,34.97
2019-03-23T19:44:49.014Z,33.53
2019-03-23T19:47:21.910Z,33.13
2019-03-23T19:49:52.975Z,32.47
2019-03-23T19:52:24.087Z,29.90
2019-03-23T19:54:55.067Z,31.00
2019-03-23T19:57:26.501Z,29.23
2019-03-23T19:59:57.543Z,28.40
2019-03-23T20:02:29.684Z,25.57
2019-03-23T20:05:00.582Z,27.47
2019-03-23T20:07:33.233Z,26.90
2019-03-23T20:10:08.749Z,25.43
2019-03-23T20:12:39.743Z,38.37
2019-03-23T20:15:12.817Z,97.73
2019-03-23T20:17:44.286Z,49.97
2019-03-23T20:20:16.868Z,66.60
2019-03-23T20:22:47.946Z,165.43
2019-03-23T20:25:20.714Z,61.17
2019-03-23T20:27:51.805Z,33.90
2019-03-23T20:30:22.968Z,26.30
2019-03-23T20:32:53.976Z,27.30
2019-03-23T20:35:25.407Z,25.67
2019-03-23T20:37:56.547Z,29.07
2019-03-23T20:40:27.645Z,27.53
2019-03-23T20:42:58.982Z,26.60
2019-03-23T20:45:30.864Z,24.83
2019-03-23T20:48:02.361Z,27.77
2019-03-23T20:50:33.785Z,25.13
2019-03-23T20:53:05.153Z,25.27
2019-03-23T20:55:36.633Z,25.67
2019-03-23T20:58:07.990Z,27.13
2019-03-23T21:00:40.749Z,25.37
2019-03-23T21:03:11.735Z,26.07
2019-03-23T21:05:42.823Z,25.30
2019-03-23T21:08:13.725Z,24.07
2019-03-23T21:10:45.916Z,22.77
2019-03-23T21:13:17.495Z,23.67
2019-03-23T21:16:08.937Z,22.97
2019-03-23T21:18:48.268Z,25.00
2019-03-23T21:21:21.430Z,23.50
2019-03-23T21:23:52.484Z,22.20
2019-03-23T21:26:23.441Z,24.23
2019-03-23T21:28:54.457Z,24.87
2019-03-23T21:31:26.374Z,24.27
2019-03-23T21:33:57.471Z,23.20
2019-03-23T21:36:30.859Z,24.87
2019-03-23T21:39:03.339Z,25.03
2019-03-23T21:41:35.735Z,26.03
2019-03-23T21:44:08.393Z,27.23
2019-03-23T21:46:39.353Z,28.07
2019-03-23T21:49:10.471Z,30.83
2019-03-23T21:51:41.412Z,32.37
2019-03-23T21:54:13.080Z,31.07
2019-03-23T21:56:44.029Z,30.77
2019-03-23T21:59:15.088Z,30.00
2019-03-23T22:01:46.293Z,31.60
2019-03-23T22:04:17.374Z,28.90
2019-03-23T22:06:48.334Z,27.63
2019-03-23T22:09:19.252Z,26.47
2019-03-23T22:11:50.309Z,25.23
2019-03-23T22:14:21.313Z,25.43
2019-03-23T22:16:53.828Z,26.50
2019-03-23T22:19:25.680Z,25.77
2019-03-23T22:21:56.968Z,25.57
2019-03-23T22:24:28.109Z,25.37
2019-03-23T22:26:59.273Z,25.77
2019-03-23T22:29:30.606Z,25.70
2019-03-23T22:32:01.758Z,27.47
2019-03-23T22:34:32.880Z,26.53
2019-03-23T22:37:04.044Z,27.87
2019-03-23T22:39:35.386Z,26.30
2019-03-23T22:42:06.823Z,26.63
2019-03-23T22:44:37.985Z,26.70
2019-03-23T22:47:09.300Z,27.33
2019-03-23T22:49:40.368Z,28.67
2019-03-23T22:52:11.439Z,26.80
2019-03-23T22:54:42.396Z,28.00
2019-03-23T22:57:13.563Z,28.10
2019-03-23T22:59:44.817Z,28.57
2019-03-23T23:02:16.101Z,28.80
2019-03-23T23:04:47.194Z,31.27
2019-03-23T23:07:18.403Z,33.00
2019-03-23T23:09:49.595Z,33.70
2019-03-23T23:12:20.756Z,36.23
2019-03-23T23:14:53.711Z,36.27
2019-03-23T23:17:24.442Z,38.70
2019-03-23T23:19:55.364Z,39.27
2019-03-23T23:22:26.568Z,39.90
2019-03-23T23:24:57.472Z,38.40
2019-03-23T23:27:28.448Z,40.67
2019-03-23T23:29:59.728Z,40.97
2019-03-23T23:32:30.789Z,40.33
2019-03-23T23:35:01.933Z,41.73
2019-03-23T23:37:32.932Z,42.63
2019-03-23T23:40:06.198Z,40.77
2019-03-23T23:42:37.412Z,43.03
2019-03-23T23:45:15.339Z,42.40
2019-03-23T23:47:42.317Z,42.03
2019-03-23T23:50:13.513Z,42.70
2019-03-23T23:52:44.491Z,42.57
2019-03-23T23:55:15.541Z,40.60
2019-03-23T23:57:46.556Z,41.33
